Time;durP1;ratioP1;P1;durP2;ratioP2;P2;SDS_P1;SDS_P2;PMS_P1;PMS_P2;Temp;Humidity;BMP_temperature;BMP_pressure;BME280_temperature;BME280_humidity;BME280_pressure;Samples;Min_cycle;Max_cycle;Signal;HPM_P1;HPM_P2
2020/12/06 10:29:24;;;;;;;5.10;0.80;;;17.10;68.30;;;;;;5117352;27;20364;-55
2020/12/06 10:31:51;;;;;;;3.50;0.63;;;17.20;68.70;;;;;;5119546;28;20043;-56
2020/12/06 10:34:17;;;;;;;2.35;0.85;;;17.20;68.70;;;;;;5120592;28;20028;-54
2020/12/06 10:36:42;;;;;;;3.53;0.68;;;17.30;68.70;;;;;;5121026;28;20517;-54
2020/12/06 10:39:08;;;;;;;5.55;0.43;;;17.30;68.80;;;;;;5121868;28;20015;-56
2020/12/06 10:41:34;;;;;;;2.43;0.60;;;17.30;68.60;;;;;;4767090;27;9999874;-54
2020/12/06 10:43:59;;;;;;;5.97;0.60;;;17.30;68.60;;;;;;5121392;27;20791;-56
2020/12/06 10:46:26;;;;;;;4.00;0.40;;;17.30;68.60;;;;;;5111383;27;20059;-55
2020/12/06 10:48:52;;;;;;;2.83;0.70;;;17.30;68.40;;;;;;5116533;28;20042;-56
2020/12/06 10:51:18;;;;;;;0.63;0.30;;;17.30;67.90;;;;;;5120072;28;20038;-56
2020/12/06 10:53:43;;;;;;;1.35;0.60;;;17.40;68.30;;;;;;5106263;27;20032;-57
2020/12/06 10:56:09;;;;;;;9.18;1.00;;;17.30;68.00;;;;;;5123103;28;20035;-54
2020/12/06 10:58:35;;;;;;;4.13;0.68;;;17.40;68.20;;;;;;5118149;28;20062;-54
2020/12/06 11:01:01;;;;;;;1.88;0.50;;;17.50;67.60;;;;;;5115341;28;20062;-54
2020/12/06 11:03:27;;;;;;;0.95;0.60;;;17.50;68.10;;;;;;5112244;28;20044;-56
2020/12/06 11:05:52;;;;;;;6.57;1.02;;;17.50;68.20;;;;;;5121661;28;20046;-54
2020/12/06 11:08:18;;;;;;;7.00;0.70;;;17.50;68.20;;;;;;5118052;28;20039;-53
2020/12/06 11:10:43;;;;;;;2.78;0.50;;;17.50;68.20;;;;;;5118833;28;20080;-56
2020/12/06 11:13:09;;;;;;;4.25;0.70;;;17.50;67.90;;;;;;5118889;27;20036;-53
2020/12/06 11:15:34;;;;;;;5.35;0.50;;;17.50;68.00;;;;;;4765386;27;10000605;-56
2020/12/06 11:18:00;;;;;;;4.47;0.40;;;17.60;68.10;;;;;;5118355;28;20020;-55
2020/12/06 11:20:25;;;;;;;1.52;0.68;;;17.60;68.10;;;;;;5123742;28;20436;-54
2020/12/06 11:22:51;;;;;;;6.72;0.40;;;17.60;68.00;;;;;;5127315;28;20106;-55
2020/12/06 11:25:17;;;;;;;3.53;0.50;;;17.60;67.80;;;;;;5122124;28;20038;-56
2020/12/06 11:27:42;;;;;;;6.60;0.43;;;17.70;67.70;;;;;;5120783;28;20126;-56
2020/12/06 11:30:08;;;;;;;6.40;0.73;;;17.60;67.50;;;;;;5126094;27;20020;-54
2020/12/06 11:32:33;;;;;;;0.82;0.35;;;17.60;67.60;;;;;;5126304;28;20095;-55
2020/12/06 11:34:59;;;;;;;6.00;0.85;;;17.60;67.60;;;;;;5127700;27;20102;-54
2020/12/06 11:37:24;;;;;;;4.22;0.50;;;17.60;67.70;;;;;;5125778;28;20063;-54
2020/12/06 11:39:50;;;;;;;1.65;0.50;;;17.60;67.70;;;;;;5117657;27;20028;-56
2020/12/06 11:42:16;;;;;;;2.67;0.50;;;17.50;67.70;;;;;;5110266;28;20026;-54
2020/12/06 11:44:41;;;;;;;2.70;0.60;;;17.50;67.70;;;;;;5111188;28;20424;-54
2020/12/06 11:47:07;;;;;;;0.88;0.30;;;17.50;67.80;;;;;;5112044;28;20563;-55
2020/12/06 11:49:33;;;;;;;2.15;0.60;;;17.50;67.80;;;;;;5107017;27;20031;-56
2020/12/06 11:51:58;;;;;;;2.72;0.52;;;17.50;67.70;;;;;;5111062;27;20490;-56
2020/12/06 11:54:24;;;;;;;0.73;0.38;;;17.50;67.50;;;;;;5111568;28;20102;-56
2020/12/06 11:56:49;;;;;;;0.80;0.40;;;17.50;67.60;;;;;;5111819;28;20070;-56
2020/12/06 11:59:16;;;;;;;1.17;0.35;;;17.50;67.60;;;;;;5108953;28;20317;-55
2020/12/06 12:01:42;;;;;;;0.55;0.43;;;17.50;67.50;;;;;;5108461;28;20051;-56
2020/12/06 12:04:07;;;;;;;1.75;0.55;;;17.50;67.10;;;;;;5106789;28;20521;-54
2020/12/06 12:06:33;;;;;;;0.82;0.47;;;17.40;67.10;;;;;;5108104;28;20030;-55
2020/12/06 12:08:59;;;;;;;3.22;0.40;;;17.40;67.30;;;;;;5109852;28;20051;-55
2020/12/06 12:11:24;;;;;;;3.70;0.50;;;17.40;67.60;;;;;;5113162;28;20432;-54
2020/12/06 12:13:50;;;;;;;2.70;0.80;;;17.40;68.30;;;;;;5111015;28;20034;-55
2020/12/06 12:16:15;;;;;;;3.53;0.50;;;17.40;68.60;;;;;;5109432;28;20027;-57
2020/12/06 12:18:41;;;;;;;0.57;0.40;;;17.40;68.40;;;;;;5109210;28;20044;-54
2020/12/06 12:21:07;;;;;;;4.07;0.57;;;17.40;68.80;;;;;;5108756;28;20024;-56
2020/12/06 12:23:32;;;;;;;4.13;0.57;;;17.40;68.60;;;;;;5110902;28;20019;-56
2020/12/06 12:25:58;;;;;;;1.67;0.43;;;17.50;68.30;;;;;;5107529;28;20026;-55
2020/12/06 12:28:23;;;;;;;3.33;0.50;;;17.40;68.20;;;;;;5103811;28;20074;-54
2020/12/06 12:30:49;;;;;;;1.83;0.82;;;17.40;68.60;;;;;;5108671;28;20393;-56
2020/12/06 12:33:15;;;;;;;5.50;0.80;;;17.50;69.00;;;;;;5107284;28;20024;-56
2020/12/06 12:35:40;;;;;;;3.80;1.00;;;17.50;70.30;;;;;;5107904;28;20028;-55
2020/12/06 12:38:06;;;;;;;5.82;1.10;;;17.50;70.10;;;;;;5099945;28;20107;-54
2020/12/06 12:40:31;;;;;;;3.33;0.85;;;17.40;70.10;;;;;;5110300;28;20099;-55
2020/12/06 12:42:57;;;;;;;2.97;0.90;;;17.40;69.80;;;;;;5100902;28;20358;-54
2020/12/06 12:45:24;;;;;;;3.03;0.82;;;17.40;70.00;;;;;;5109925;28;20074;-56
2020/12/06 12:47:52;;;;;;;2.15;1.20;;;17.40;70.00;;;;;;5104280;28;20036;-55
2020/12/06 12:50:19;;;;;;;4.45;1.30;;;17.50;70.20;;;;;;5108195;28;20020;-55
2020/12/06 12:52:47;;;;;;;1.40;1.05;;;17.50;70.40;;;;;;5106985;28;20088;-55
2020/12/06 12:55:14;;;;;;;4.45;1.40;;;17.40;70.50;;;;;;5104660;28;20111;-56
2020/12/06 12:57:40;;;;;;;3.70;1.48;;;17.50;70.50;;;;;;5100956;28;20032;-54
2020/12/06 13:00:06;;;;;;;2.45;1.67;;;17.40;70.50;;;;;;5108202;28;20418;-54
2020/12/06 13:02:33;;;;;;;3.47;1.33;;;17.40;70.40;;;;;;5107563;28;20032;-55
2020/12/06 13:04:59;;;;;;;4.15;1.33;;;17.40;70.30;;;;;;5109262;28;20093;-55
2020/12/06 13:07:24;;;;;;;4.20;1.25;;;17.40;70.20;;;;;;5107113;28;20441;-55
2020/12/06 13:09:50;;;;;;;4.10;1.75;;;17.50;70.20;;;;;;5109041;28;20066;-54
2020/12/06 13:12:16;;;;;;;2.25;1.75;;;17.50;70.20;;;;;;5110534;28;20024;-56
2020/12/06 13:14:41;;;;;;;2.47;1.52;;;17.40;70.40;;;;;;5105664;28;20067;-57
2020/12/06 13:17:07;;;;;;;2.20;1.23;;;17.40;70.10;;;;;;5105936;28;20031;-53
2020/12/06 13:19:33;;;;;;;4.30;1.67;;;17.50;69.90;;;;;;5103378;28;20391;-55
2020/12/06 13:21:58;;;;;;;1.90;1.13;;;17.50;70.20;;;;;;5103706;28;20486;-57
2020/12/06 13:24:24;;;;;;;1.23;1.13;;;17.60;70.80;;;;;;5104089;28;20059;-58
2020/12/06 13:26:58;;;;;;;2.30;1.00;;;17.60;70.30;;;;;;5104161;28;20489;-56
2020/12/06 13:29:23;;;;;;;3.97;1.08;;;17.60;70.90;;;;;;5104630;28;20078;-56
2020/12/06 13:31:52;;;;;;;2.67;1.27;;;17.60;70.80;;;;;;5104486;28;20059;-56
2020/12/06 13:34:18;;;;;;;2.22;1.27;;;17.60;70.60;;;;;;5104925;28;20035;-54
2020/12/06 13:36:44;;;;;;;2.92;1.10;;;17.60;70.60;;;;;;5104724;28;20126;-59
2020/12/06 13:39:09;;;;;;;3.33;1.20;;;17.60;70.60;;;;;;5102571;28;20111;-53
2020/12/06 13:41:35;;;;;;;1.60;0.90;;;17.60;70.40;;;;;;5105822;28;20364;-56
2020/12/06 13:44:01;;;;;;;1.75;1.52;;;17.60;70.20;;;;;;5099665;28;20474;-59
2020/12/06 13:46:26;;;;;;;1.95;1.10;;;17.60;70.10;;;;;;5102518;28;20050;-58
2020/12/06 13:48:52;;;;;;;2.15;1.20;;;17.60;70.00;;;;;;5103212;28;20042;-57
2020/12/06 13:51:18;;;;;;;4.88;1.15;;;17.60;70.00;;;;;;5104829;28;20032;-57
2020/12/06 13:53:44;;;;;;;1.00;0.75;;;17.60;70.00;;;;;;5105013;28;20974;-58
2020/12/06 13:56:10;;;;;;;1.42;0.88;;;17.60;69.90;;;;;;5105278;28;20034;-57
2020/12/06 13:58:36;;;;;;;1.30;1.13;;;17.60;69.80;;;;;;5104779;28;20484;-59
2020/12/06 14:01:01;;;;;;;2.75;1.23;;;17.60;69.80;;;;;;5100003;28;20027;-58
2020/12/06 14:03:27;;;;;;;2.75;1.40;;;17.60;69.80;;;;;;5105980;28;20084;-56
2020/12/06 14:05:53;;;;;;;2.70;1.50;;;17.60;69.60;;;;;;5107322;28;20028;-57
2020/12/06 14:08:21;;;;;;;3.42;0.80;;;17.60;70.20;;;;;;5108024;28;20038;-58
2020/12/06 14:10:47;;;;;;;1.83;1.30;;;17.50;68.70;;;;;;5100896;28;20028;-57
2020/12/06 14:13:12;;;;;;;5.90;1.52;;;17.50;69.10;;;;;;5106736;28;20042;-61
2020/12/06 14:15:38;;;;;;;3.97;1.40;;;17.60;69.20;;;;;;5071556;27;20505;-60
2020/12/06 14:18:04;;;;;;;1.85;1.30;;;17.70;68.70;;;;;;5056084;28;20055;-61
2020/12/06 14:20:29;;;;;;;1.83;1.50;;;17.70;68.00;;;;;;5064665;28;20454;-59
2020/12/06 14:22:55;;;;;;;2.10;1.40;;;17.70;67.80;;;;;;5063886;28;20036;-62
2020/12/06 14:25:20;;;;;;;1.55;0.95;;;17.80;67.60;;;;;;5061946;28;20514;-59
2020/12/06 14:27:46;;;;;;;2.05;1.20;;;17.90;67.20;;;;;;5059576;28;20055;-60
2020/12/06 14:30:12;;;;;;;2.40;1.45;;;17.90;67.80;;;;;;5063148;28;20053;-60
2020/12/06 14:32:37;;;;;;;3.38;2.10;;;17.80;67.60;;;;;;5064159;28;20124;-59
2020/12/06 14:35:05;;;;;;;3.00;2.05;;;17.80;68.10;;;;;;5058130;28;20066;-60
2020/12/06 14:37:31;;;;;;;9.02;3.85;;;17.90;67.90;;;;;;5060567;28;20447;-62
2020/12/06 14:39:56;;;;;;;7.18;6.38;;;17.90;67.40;;;;;;5065771;28;20064;-61
2020/12/06 14:42:22;;;;;;;6.18;4.75;;;18.00;67.30;;;;;;5065190;28;20044;-61
2020/12/06 14:44:47;;;;;;;9.05;7.40;;;17.90;67.40;;;;;;5063210;28;20643;-58
2020/12/06 14:47:13;;;;;;;7.45;6.13;;;17.90;66.90;;;;;;5064634;28;20085;-57
2020/12/06 14:49:40;;;;;;;6.90;6.00;;;17.90;67.10;;;;;;5064322;28;20056;-52
2020/12/06 14:52:06;;;;;;;11.88;7.75;;;17.90;67.40;;;;;;5064664;28;20135;-48
2020/12/06 14:54:31;;;;;;;8.07;6.43;;;17.90;66.90;;;;;;5060849;28;20053;-49
2020/12/06 14:56:57;;;;;;;10.00;6.90;;;17.80;66.90;;;;;;5065233;28;20032;-55
2020/12/06 14:59:22;;;;;;;10.75;6.60;;;17.80;66.70;;;;;;5064194;28;20075;-54
2020/12/06 15:01:49;;;;;;;7.80;7.07;;;17.80;66.70;;;;;;5066097;28;20036;-54
2020/12/06 15:04:14;;;;;;;8.23;6.18;;;17.80;66.60;;;;;;5065002;28;20052;-53
2020/12/06 15:06:40;;;;;;;12.20;6.68;;;17.80;66.60;;;;;;5062378;28;20041;-54
2020/12/06 15:09:06;;;;;;;7.32;6.60;;;17.80;66.80;;;;;;5064613;28;20570;-56
2020/12/06 15:11:32;;;;;;;8.13;5.47;;;17.80;66.70;;;;;;5058875;28;20114;-58
2020/12/06 15:13:57;;;;;;;6.22;5.75;;;17.80;66.70;;;;;;5060047;28;20108;-55
2020/12/06 15:16:23;;;;;;;13.13;4.95;;;17.80;66.70;;;;;;5068953;28;20040;-55
2020/12/06 15:18:49;;;;;;;8.48;5.82;;;17.80;66.60;;;;;;5067001;28;20075;-53
2020/12/06 15:21:16;;;;;;;5.38;4.68;;;17.80;66.60;;;;;;5068364;28;20134;-54
2020/12/06 15:23:41;;;;;;;7.13;4.65;;;17.80;66.40;;;;;;5066476;28;20036;-53
2020/12/06 15:26:07;;;;;;;4.85;4.38;;;17.80;66.50;;;;;;5070625;28;20052;-53
2020/12/06 15:28:33;;;;;;;5.10;4.57;;;17.70;66.60;;;;;;5068806;28;20515;-53
2020/12/06 15:30:58;;;;;;;5.03;4.45;;;17.70;66.70;;;;;;5068195;28;20078;-51
2020/12/06 15:33:24;;;;;;;4.68;4.22;;;17.70;66.80;;;;;;5068516;28;20082;-52
2020/12/06 15:35:49;;;;;;;4.35;3.95;;;17.70;66.90;;;;;;5066925;28;20037;-54
2020/12/06 15:38:15;;;;;;;6.05;3.95;;;17.70;67.10;;;;;;5070501;28;20056;-52
2020/12/06 15:40:41;;;;;;;4.47;4.07;;;17.70;67.10;;;;;;5067659;28;20048;-55
2020/12/06 15:43:06;;;;;;;14.93;3.92;;;17.70;67.00;;;;;;5068183;28;20127;-55
2020/12/06 15:45:32;;;;;;;7.13;5.47;;;17.70;67.00;;;;;;5067365;28;20044;-54
2020/12/06 15:47:58;;;;;;;4.82;4.10;;;17.70;67.00;;;;;;5068964;28;20135;-51
2020/12/06 15:50:24;;;;;;;5.75;4.10;;;17.70;67.20;;;;;;5067826;28;20131;-53
2020/12/06 15:52:50;;;;;;;6.10;3.55;;;17.70;67.10;;;;;;5064754;28;20061;-55
2020/12/06 15:55:16;;;;;;;5.07;4.07;;;17.80;67.10;;;;;;5066242;28;20037;-56
2020/12/06 15:57:42;;;;;;;22.95;4.10;;;17.80;67.10;;;;;;5064709;28;20392;-55
2020/12/06 16:00:07;;;;;;;4.57;3.58;;;17.80;67.00;;;;;;5063978;28;20512;-54
2020/12/06 16:02:33;;;;;;;6.03;3.53;;;17.80;66.90;;;;;;5064790;28;20075;-51
2020/12/06 16:04:59;;;;;;;5.18;4.03;;;17.80;67.00;;;;;;5065135;28;20113;-57
2020/12/06 16:07:26;;;;;;;5.55;4.53;;;17.80;67.20;;;;;;5080818;28;20400;-57
2020/12/06 16:09:54;;;;;;;5.93;3.65;;;17.90;67.30;;;;;;5063878;28;20133;-56
2020/12/06 16:12:20;;;;;;;5.47;3.80;;;17.80;67.20;;;;;;5065558;28;20036;-53
2020/12/06 16:14:45;;;;;;;5.28;4.43;;;17.80;67.40;;;;;;5065266;28;20110;-58
2020/12/06 16:17:11;;;;;;;4.93;4.43;;;17.80;67.50;;;;;;5066376;28;20059;-54
2020/12/06 16:19:37;;;;;;;6.43;4.80;;;17.90;67.90;;;;;;5062203;28;20511;-57
2020/12/06 16:22:02;;;;;;;5.40;4.63;;;17.80;67.40;;;;;;5061011;28;20044;-53
2020/12/06 16:24:28;;;;;;;4.97;4.60;;;17.90;67.60;;;;;;5064912;28;20047;-55
2020/12/06 16:26:53;;;;;;;6.18;5.13;;;17.90;67.70;;;;;;5062876;28;21531;-57
2020/12/06 16:29:19;;;;;;;6.00;5.40;;;17.90;67.70;;;;;;5065745;28;20048;-56
2020/12/06 16:31:45;;;;;;;4.78;4.13;;;17.90;67.80;;;;;;5065125;28;20048;-55
2020/12/06 16:34:11;;;;;;;4.85;4.45;;;17.90;67.70;;;;;;5066401;28;20025;-55
2020/12/06 16:36:37;;;;;;;5.22;4.50;;;17.90;67.60;;;;;;4716038;28;10000265;-57
2020/12/06 16:39:03;;;;;;;6.72;4.80;;;18.00;67.80;;;;;;5081163;28;20624;-55
2020/12/06 16:41:29;;;;;;;5.40;4.90;;;17.90;67.40;;;;;;5060420;28;20534;-55
2020/12/06 16:43:54;;;;;;;5.85;5.22;;;17.90;67.60;;;;;;5067112;28;20064;-55
2020/12/06 16:46:20;;;;;;;6.43;5.50;;;18.00;67.50;;;;;;5064728;28;20050;-57
2020/12/06 16:48:46;;;;;;;7.60;5.22;;;18.00;67.20;;;;;;5062900;28;20043;-55
2020/12/06 16:51:11;;;;;;;8.20;4.97;;;17.90;67.30;;;;;;5063060;28;20039;-53
2020/12/06 16:53:37;;;;;;;8.30;5.70;;;17.90;67.30;;;;;;5065802;28;20036;-55
2020/12/06 16:56:03;;;;;;;5.68;5.13;;;17.90;67.30;;;;;;5064451;28;20024;-55
2020/12/06 16:58:29;;;;;;;8.70;6.40;;;18.00;67.50;;;;;;5059357;28;20040;-55
2020/12/06 17:00:54;;;;;;;9.73;6.68;;;18.00;67.20;;;;;;5063975;28;20401;-56
2020/12/06 17:03:20;;;;;;;6.90;5.50;;;18.00;66.90;;;;;;5064567;28;20068;-56
2020/12/06 17:05:47;;;;;;;7.68;6.88;;;18.00;66.80;;;;;;5063909;28;20060;-58
2020/12/06 17:08:12;;;;;;;10.82;8.75;;;18.00;66.90;;;;;;4711447;28;10000347;-58
2020/12/06 17:10:38;;;;;;;8.50;7.70;;;18.00;67.20;;;;;;5064026;28;20441;-57
2020/12/06 17:13:03;;;;;;;10.02;7.45;;;18.00;67.10;;;;;;5061493;28;20051;-58
2020/12/06 17:15:29;;;;;;;8.95;7.40;;;18.10;67.10;;;;;;5064045;28;20108;-58
2020/12/06 17:17:55;;;;;;;9.27;6.50;;;18.10;66.80;;;;;;5059725;28;20131;-52
2020/12/06 17:20:21;;;;;;;10.95;6.50;;;18.10;66.80;;;;;;5061480;28;20052;-58
2020/12/06 17:22:46;;;;;;;7.35;5.25;;;18.10;66.90;;;;;;5061160;28;20051;-56
2020/12/06 17:25:12;;;;;;;6.43;5.93;;;18.00;66.50;;;;;;5059086;28;20047;-57
2020/12/06 17:27:38;;;;;;;9.35;6.22;;;18.00;66.40;;;;;;5062143;28;20626;-59
2020/12/06 17:30:04;;;;;;;7.75;6.40;;;18.00;66.40;;;;;;5062564;28;20048;-55
2020/12/06 17:32:31;;;;;;;8.43;6.20;;;18.00;66.30;;;;;;5062304;28;20496;-52
2020/12/06 17:34:56;;;;;;;6.28;5.72;;;18.00;66.30;;;;;;5061942;28;20045;-56
2020/12/06 17:37:22;;;;;;;9.80;5.13;;;18.00;66.40;;;;;;5062745;28;20041;-58
2020/12/06 17:39:47;;;;;;;9.63;5.22;;;18.00;66.50;;;;;;5060738;28;20052;-58
2020/12/06 17:42:13;;;;;;;6.40;5.75;;;18.00;66.30;;;;;;5054672;28;20073;-58
2020/12/06 17:44:39;;;;;;;5.35;4.95;;;18.00;66.40;;;;;;5062836;28;20562;-58
2020/12/06 17:47:10;;;;;;;5.38;4.97;;;18.00;66.30;;;;;;5057903;28;20090;-59
2020/12/06 17:49:37;;;;;;;6.13;5.63;;;18.00;66.10;;;;;;5062653;28;20063;-55
2020/12/06 17:52:03;;;;;;;7.53;5.93;;;18.00;66.10;;;;;;5061358;28;20131;-57
2020/12/06 17:54:29;;;;;;;5.47;5.05;;;18.00;66.00;;;;;;5065790;28;20683;-53
2020/12/06 17:56:54;;;;;;;5.47;4.80;;;18.20;66.30;;;;;;5065451;28;20102;-56
2020/12/06 17:59:20;;;;;;;5.15;4.75;;;18.20;65.90;;;;;;5064582;28;20062;-54
2020/12/06 18:01:47;;;;;;;6.13;5.32;;;18.20;65.70;;;;;;5063038;28;20454;-54
2020/12/06 18:04:12;;;;;;;4.65;4.35;;;18.30;66.00;;;;;;5059961;28;20131;-51
2020/12/06 18:06:38;;;;;;;5.15;4.65;;;18.40;65.80;;;;;;5061264;28;20135;-56
2020/12/06 18:09:04;;;;;;;5.40;5.00;;;18.40;65.40;;;;;;5064066;28;20064;-59
2020/12/06 18:11:29;;;;;;;5.15;4.68;;;18.40;65.50;;;;;;5063888;28;20045;-54
2020/12/06 18:13:55;;;;;;;4.28;3.97;;;18.40;65.30;;;;;;5063126;28;20503;-58
2020/12/06 18:16:27;;;;;;;5.05;4.55;;;18.40;65.20;;;;;;5064630;28;20047;-50
2020/12/06 18:18:53;;;;;;;5.30;4.78;;;18.50;65.20;;;;;;5060932;28;20585;-57
2020/12/06 18:21:22;;;;;;;4.65;4.25;;;18.50;65.10;;;;;;5062473;28;20040;-51
2020/12/06 18:23:48;;;;;;;5.72;4.38;;;18.50;65.00;;;;;;5064479;28;20097;-56
2020/12/06 18:26:14;;;;;;;6.60;4.30;;;18.50;65.10;;;;;;4705789;28;10000616;-51
2020/12/06 18:28:40;;;;;;;5.35;3.97;;;18.50;64.80;;;;;;5059802;28;20054;-54
2020/12/06 18:31:05;;;;;;;5.20;4.20;;;18.40;65.00;;;;;;5060784;28;20045;-55
2020/12/06 18:33:31;;;;;;;4.18;3.88;;;18.40;65.00;;;;;;5060637;28;20044;-53
2020/12/06 18:35:56;;;;;;;3.88;3.65;;;18.40;65.00;;;;;;5058269;28;20079;-53
2020/12/06 18:38:23;;;;;;;3.75;3.45;;;18.40;65.10;;;;;;5060106;28;20094;-53
2020/12/06 18:40:48;;;;;;;3.90;3.35;;;18.40;65.80;;;;;;5073354;28;20400;-53
2020/12/06 18:43:14;;;;;;;3.72;3.47;;;18.40;65.00;;;;;;5053259;28;20062;-54
2020/12/06 18:45:42;;;;;;;3.55;3.35;;;18.30;65.10;;;;;;5061683;28;20503;-52
2020/12/06 18:48:08;;;;;;;4.00;3.70;;;18.30;65.00;;;;;;5061085;28;20106;-56
2020/12/06 18:50:33;;;;;;;3.75;3.55;;;18.30;65.10;;;;;;5078375;28;20431;-54
2020/12/06 18:52:59;;;;;;;4.25;3.95;;;18.30;65.00;;;;;;5061037;28;20055;-53
2020/12/06 18:55:27;;;;;;;3.40;3.20;;;18.30;65.00;;;;;;5060678;28;20790;-50
2020/12/06 18:57:54;;;;;;;3.50;3.30;;;18.30;65.10;;;;;;5063706;28;20029;-53
2020/12/06 19:00:19;;;;;;;4.55;3.35;;;18.30;65.10;;;;;;5061592;28;20151;-53
2020/12/06 19:02:45;;;;;;;3.53;3.28;;;18.30;65.20;;;;;;5063313;28;20041;-50
2020/12/06 19:05:11;;;;;;;3.40;3.20;;;18.30;65.40;;;;;;5061142;28;20135;-49
2020/12/06 19:07:37;;;;;;;3.08;2.85;;;18.40;65.70;;;;;;5065064;28;20420;-48
2020/12/06 19:10:03;;;;;;;3.92;2.95;;;18.40;65.30;;;;;;5062607;28;20427;-50
2020/12/06 19:12:29;;;;;;;4.90;2.75;;;18.50;65.40;;;;;;5063592;28;20101;-54
2020/12/06 19:14:55;;;;;;;2.80;2.60;;;18.40;65.10;;;;;;5063087;28;20052;-49
2020/12/06 19:17:20;;;;;;;3.17;2.97;;;18.50;65.20;;;;;;5065369;28;20041;-50
2020/12/06 19:19:47;;;;;;;2.95;2.65;;;18.50;65.20;;;;;;5063897;28;20404;-52
2020/12/06 19:22:17;;;;;;;4.22;2.70;;;18.50;65.30;;;;;;5061348;28;20036;-52
2020/12/06 19:24:42;;;;;;;4.22;3.10;;;18.40;65.30;;;;;;5064423;28;20076;-52
2020/12/06 19:27:08;;;;;;;4.43;2.75;;;18.40;65.20;;;;;;5062736;27;20064;-53
2020/12/06 19:29:34;;;;;;;3.20;2.95;;;18.40;65.20;;;;;;5079911;28;20078;-54
2020/12/06 19:31:59;;;;;;;3.10;2.90;;;18.40;66.10;;;;;;5066095;28;20519;-52
2020/12/06 19:34:25;;;;;;;5.22;3.58;;;18.40;65.30;;;;;;5068239;28;20045;-51
2020/12/06 19:36:51;;;;;;;13.77;3.50;;;18.40;65.30;;;;;;5066796;28;20040;-51
2020/12/06 19:39:17;;;;;;;3.42;3.20;;;18.40;65.40;;;;;;5068693;28;20076;-50
2020/12/06 19:41:43;;;;;;;3.13;2.90;;;18.40;65.40;;;;;;5067352;28;20033;-54
2020/12/06 19:44:09;;;;;;;3.38;3.17;;;18.40;65.40;;;;;;5068181;28;20044;-53
2020/12/06 19:46:36;;;;;;;3.10;2.90;;;18.40;65.40;;;;;;5068996;28;20041;-50
2020/12/06 19:49:02;;;;;;;3.90;3.70;;;18.40;65.40;;;;;;5063881;28;20059;-52
2020/12/06 19:51:28;;;;;;;4.22;2.42;;;18.40;65.40;;;;;;5061904;28;20047;-52
2020/12/06 19:53:54;;;;;;;2.95;2.75;;;18.50;65.50;;;;;;5055541;28;20068;-51
2020/12/06 19:56:20;;;;;;;3.55;2.72;;;18.50;65.40;;;;;;5066906;28;20598;-53
2020/12/06 19:58:45;;;;;;;5.45;2.70;;;18.50;65.40;;;;;;5061336;28;20157;-48
2020/12/06 20:01:11;;;;;;;3.20;3.00;;;18.40;65.30;;;;;;5061922;28;20052;-51
2020/12/06 20:03:37;;;;;;;3.70;2.95;;;18.50;65.50;;;;;;5064652;28;20040;-50
2020/12/06 20:06:04;;;;;;;2.78;2.67;;;18.50;65.40;;;;;;5062612;28;20440;-48
2020/12/06 20:08:30;;;;;;;3.17;2.97;;;18.50;65.50;;;;;;5067336;28;20075;-59
2020/12/06 20:10:56;;;;;;;2.92;2.42;;;18.50;65.60;;;;;;5062016;28;20037;-49
2020/12/06 20:13:22;;;;;;;2.63;2.53;;;18.50;65.60;;;;;;5062581;28;20050;-52
2020/12/06 20:15:48;;;;;;;3.15;2.58;;;18.60;65.70;;;;;;5061795;28;20052;-52
2020/12/06 20:18:13;;;;;;;3.00;2.80;;;18.60;65.40;;;;;;5059838;28;20075;-51
2020/12/06 20:20:39;;;;;;;2.67;2.47;;;18.60;65.60;;;;;;5054824;28;20049;-49
2020/12/06 20:23:05;;;;;;;2.47;2.28;;;18.60;65.40;;;;;;5053638;28;20135;-54
2020/12/06 20:25:31;;;;;;;3.00;2.80;;;18.60;65.30;;;;;;5062280;28;20044;-56
2020/12/06 20:27:57;;;;;;;5.47;2.38;;;18.60;65.30;;;;;;5064280;28;20048;-54
2020/12/06 20:30:23;;;;;;;3.58;2.40;;;18.60;65.40;;;;;;5063572;28;20037;-55
2020/12/06 20:32:49;;;;;;;3.80;2.80;;;18.60;65.30;;;;;;5062927;28;20178;-54
2020/12/06 20:35:16;;;;;;;4.60;2.30;;;18.60;65.40;;;;;;5064374;28;20139;-55
2020/12/06 20:37:41;;;;;;;3.80;2.97;;;18.60;65.30;;;;;;5060001;28;20048;-53
2020/12/06 20:40:09;;;;;;;2.35;2.20;;;18.60;65.40;;;;;;5060237;28;20049;-53
2020/12/06 20:42:34;;;;;;;3.67;2.70;;;18.60;65.40;;;;;;5055449;28;20131;-54
2020/12/06 20:45:00;;;;;;;2.97;2.72;;;18.60;65.40;;;;;;5062728;28;20124;-55
2020/12/06 20:47:26;;;;;;;3.30;2.50;;;18.60;65.50;;;;;;5066864;28;20361;-54
2020/12/06 20:49:52;;;;;;;2.60;2.40;;;18.60;65.40;;;;;;5061402;28;20078;-53
2020/12/06 20:52:17;;;;;;;2.45;2.35;;;18.70;65.50;;;;;;5056257;28;20070;-54
2020/12/06 20:54:43;;;;;;;2.63;2.40;;;18.70;65.40;;;;;;5053993;28;20041;-54
2020/12/06 20:57:09;;;;;;;4.13;2.35;;;18.70;65.20;;;;;;5074548;28;20044;-54
2020/12/06 20:59:35;;;;;;;2.53;2.42;;;18.60;65.30;;;;;;5059477;28;20490;-55
2020/12/06 21:02:00;;;;;;;2.42;2.33;;;18.70;65.30;;;;;;5058380;28;20044;-53
2020/12/06 21:04:26;;;;;;;2.08;1.88;;;18.70;65.30;;;;;;5057294;28;20044;-54
2020/12/06 21:06:51;;;;;;;3.72;2.33;;;18.60;65.10;;;;;;5059373;28;20045;-54
2020/12/06 21:09:17;;;;;;;2.45;2.05;;;18.60;65.20;;;;;;5060984;28;20052;-54
2020/12/06 21:11:43;;;;;;;5.20;2.40;;;18.60;65.90;;;;;;5059239;28;20446;-54
2020/12/06 21:14:08;;;;;;;6.35;2.70;;;18.70;65.10;;;;;;5061382;28;20040;-54
2020/12/06 21:16:34;;;;;;;2.60;2.50;;;18.70;65.00;;;;;;5058897;28;20052;-54
2020/12/06 21:18:59;;;;;;;2.95;2.50;;;18.70;65.10;;;;;;5058753;28;20137;-54
2020/12/06 21:21:25;;;;;;;3.45;2.58;;;18.70;65.00;;;;;;5060664;28;20743;-53
2020/12/06 21:23:51;;;;;;;2.33;2.10;;;18.70;65.50;;;;;;5060023;28;20469;-56
2020/12/06 21:26:17;;;;;;;6.35;2.65;;;18.60;65.00;;;;;;5058339;28;20048;-54
2020/12/06 21:28:43;;;;;;;4.95;2.80;;;18.70;65.00;;;;;;5059871;28;20056;-54
2020/12/06 21:31:09;;;;;;;2.63;2.42;;;18.70;64.90;;;;;;5063357;28;20102;-53
2020/12/06 21:33:35;;;;;;;2.58;2.15;;;18.70;65.00;;;;;;5059626;28;20427;-54
2020/12/06 21:36:03;;;;;;;4.63;2.88;;;18.70;65.00;;;;;;5061006;28;20036;-54
2020/12/06 21:38:29;;;;;;;5.10;3.13;;;18.70;65.00;;;;;;5062826;28;20045;-52
2020/12/06 21:40:54;;;;;;;3.05;2.83;;;18.60;64.90;;;;;;5063587;28;20399;-55
2020/12/06 21:43:20;;;;;;;3.40;2.40;;;18.70;65.20;;;;;;5063069;28;20055;-52
2020/12/06 21:45:46;;;;;;;3.67;2.65;;;18.70;65.00;;;;;;5058732;28;20060;-52
2020/12/06 21:48:11;;;;;;;7.57;2.97;;;18.70;65.00;;;;;;5063183;28;20040;-54
2020/12/06 21:50:37;;;;;;;4.95;2.75;;;18.80;65.20;;;;;;5063540;28;20110;-54
2020/12/06 21:53:03;;;;;;;2.80;2.60;;;18.70;65.10;;;;;;5062848;28;20127;-53
2020/12/06 21:55:28;;;;;;;2.97;2.80;;;18.80;65.00;;;;;;5063245;28;20040;-51
2020/12/06 21:57:54;;;;;;;3.08;2.88;;;18.80;65.00;;;;;;5060155;28;20130;-49
2020/12/06 22:00:24;;;;;;;3.83;2.58;;;18.80;65.20;;;;;;5060141;28;20197;-52
2020/12/06 22:02:50;;;;;;;2.95;2.75;;;18.80;65.00;;;;;;5062479;28;20048;-55
2020/12/06 22:05:15;;;;;;;2.75;2.55;;;18.80;65.00;;;;;;5062879;28;20044;-53
2020/12/06 22:07:41;;;;;;;4.13;3.00;;;18.70;64.70;;;;;;5062625;28;20384;-54
2020/12/06 22:10:07;;;;;;;3.38;3.10;;;18.80;65.00;;;;;;5058930;28;20123;-54
2020/12/06 22:12:33;;;;;;;2.97;2.78;;;18.80;64.70;;;;;;5057947;28;20032;-52
2020/12/06 22:14:58;;;;;;;2.90;2.70;;;18.80;64.60;;;;;;5062492;28;20514;-53
2020/12/06 22:17:24;;;;;;;7.72;3.03;;;18.70;64.60;;;;;;5066626;28;20041;-54
2020/12/06 22:19:49;;;;;;;6.22;3.30;;;18.70;64.50;;;;;;5066125;28;20123;-54
2020/12/06 22:22:15;;;;;;;4.60;2.72;;;18.70;65.40;;;;;;5064627;28;20066;-53
2020/12/06 22:24:40;;;;;;;4.75;2.70;;;18.70;64.70;;;;;;5061207;28;20041;-54
2020/12/06 22:27:06;;;;;;;4.00;2.70;;;18.70;64.50;;;;;;5061594;28;20036;-55
2020/12/06 22:29:32;;;;;;;3.15;2.92;;;18.70;64.60;;;;;;5062742;28;20044;-54
2020/12/06 22:31:57;;;;;;;2.90;2.70;;;18.70;64.30;;;;;;5067611;28;20080;-53
2020/12/06 22:34:23;;;;;;;3.67;3.38;;;18.70;64.40;;;;;;5066537;28;20045;-50
2020/12/06 22:36:49;;;;;;;10.32;3.30;;;18.80;64.40;;;;;;5066455;28;20048;-54
2020/12/06 22:39:16;;;;;;;5.20;3.00;;;18.70;64.40;;;;;;5065398;28;20064;-55
2020/12/06 22:41:42;;;;;;;2.90;2.70;;;18.70;64.40;;;;;;5067160;28;20053;-54
2020/12/06 22:44:07;;;;;;;5.80;2.33;;;18.70;64.40;;;;;;5067114;28;20056;-55
2020/12/06 22:46:33;;;;;;;5.72;2.88;;;18.70;64.30;;;;;;5066646;28;20052;-54
2020/12/06 22:48:59;;;;;;;5.25;3.38;;;18.70;64.40;;;;;;5065528;28;20478;-50
2020/12/06 22:51:24;;;;;;;4.40;2.58;;;18.70;64.30;;;;;;5065378;28;20052;-51
2020/12/06 22:53:50;;;;;;;2.78;2.53;;;18.70;64.30;;;;;;5065832;28;20468;-54
2020/12/06 22:56:22;;;;;;;5.15;3.10;;;18.70;64.30;;;;;;5066731;28;20131;-56
2020/12/06 22:58:50;;;;;;;5.05;2.83;;;18.70;64.30;;;;;;5062723;28;20399;-53
2020/12/06 23:01:26;;;;;;;4.03;2.83;;;18.70;64.40;;;;;;5062077;28;20063;-52
2020/12/06 23:03:52;;;;;;;4.90;3.03;;;18.70;64.40;;;;;;5065244;28;20074;-53
2020/12/06 23:06:22;;;;;;;2.72;2.53;;;18.60;64.40;;;;;;5064193;28;20042;-56